Time;durP1;ratioP1;P1;durP2;ratioP2;P2;SDS_P1;SDS_P2;PMS_P1;PMS_P2;Temp;Humidity;BMP_temperature;BMP_pressure;BME280_temperature;BME280_humidity;BME280_pressure;Samples;Min_cycle;Max_cycle;Signal;HPM_P1;HPM_P2
2022/09/08 00:00:08;;;;;;;;;;;;;;;22.63;59.36;100569.06;1028460;28;690;-74
2022/09/08 00:00:59;;;;;;;;;;;;;;;22.64;59.38;100568.03;1028949;28;631;-74
2022/09/08 00:01:49;;;;;;;;;;;;;;;22.65;59.53;100564.28;1029243;28;675;-74
2022/09/08 00:02:40;;;;;;;;;;;;;;;22.65;59.24;100565.13;1028221;28;647;-74
2022/09/08 00:03:30;;;;;;;;;;;;;;;;;;1028407;28;779;-75
2022/09/08 00:04:21;;;;;;;;;;;;;;;;;;1028991;28;626;-74
2022/09/08 00:05:12;;;;;;;;;;;;;;;22.61;59.69;100558.38;1028541;28;694;-74
2022/09/08 00:06:02;;;;;;;;;;;;;;;22.61;59.41;100558.38;1025060;28;674;-75
2022/09/08 00:06:53;;;;;;;;;;;;;;;22.62;59.62;100561.94;1026805;28;670;-73
2022/09/08 00:07:44;;;;;;;;;;;;;;;22.61;59.76;100563.81;1029396;28;642;-73
2022/09/08 00:08:34;;;;;;;;;;;;;;;22.61;59.69;100555.66;1028688;28;679;-74
2022/09/08 00:09:24;;;;;;;;;;;;;;;;;;1029398;28;686;-74
2022/09/08 00:10:15;;;;;;;;;;;;;;;22.61;59.62;100557.53;1025791;28;583;-75
2022/09/08 00:11:05;;;;;;;;;;;;;;;22.62;59.59;100553.78;1024833;29;1081;-74
2022/09/08 00:11:56;;;;;;;;;;;;;;;22.62;59.15;100553.78;1030171;28;665;-74
2022/09/08 00:12:48;;;;;;;;;;;;;;;22.63;59.47;100550.03;1028989;28;688;-74
2022/09/08 00:13:38;;;;;;;;;;;;;;;22.62;59.10;100551.06;1029299;28;663;-74
2022/09/08 00:14:28;;;;;;;;;;;;;;;22.60;59.21;100551.25;1029103;28;706;-74
2022/09/08 00:15:20;;;;;;;;;;;;;;;22.61;59.07;100550.22;1028773;28;714;-75
2022/09/08 00:16:10;;;;;;;;;;;;;;;22.62;59.32;100548.34;1030311;28;679;-74
2022/09/08 00:17:01;;;;;;;;;;;;;;;22.61;59.50;100542.06;1029152;28;618;-75
2022/09/08 00:17:51;;;;;;;;;;;;;;;22.61;59.48;100543.94;1029248;28;709;-73
2022/09/08 00:18:42;;;;;;;;;;;;;;;22.61;59.42;100549.38;1027244;28;669;-74
2022/09/08 00:19:32;;;;;;;;;;;;;;;22.59;59.60;100544.13;1026927;28;650;-73
2022/09/08 00:20:22;;;;;;;;;;;;;;;22.60;59.42;100542.25;1030352;28;953;-73
2022/09/08 00:21:13;;;;;;;;;;;;;;;22.60;59.47;100534.09;1029531;28;686;-74
2022/09/08 00:22:03;;;;;;;;;;;;;;;22.61;59.23;100541.22;1033107;28;651;-74
2022/09/08 00:22:54;;;;;;;;;;;;;;;22.60;59.24;100536.81;1033457;28;650;-73
2022/09/08 00:23:44;;;;;;;;;;;;;;;22.60;59.61;100536.81;1033077;28;1599;-73
2022/09/08 00:24:35;;;;;;;;;;;;;;;22.60;59.30;100528.69;1033089;28;676;-73
2022/09/08 00:25:26;;;;;;;;;;;;;;;22.60;59.23;100534.09;1033587;28;635;-73
2022/09/08 00:26:16;;;;;;;;;;;;;;;22.59;59.25;100532.41;1033186;28;658;-73
2022/09/08 00:27:06;;;;;;;;;;;;;;;22.59;59.41;100527.00;1033097;28;626;-73
2022/09/08 00:27:57;;;;;;;;;;;;;;;22.59;59.45;100519.69;1033515;28;737;-73
2022/09/08 00:28:48;;;;;;;;;;;;;;;22.58;59.39;100520.72;1033044;28;597;-75
2022/09/08 00:29:38;;;;;;;;;;;;;;;22.60;59.35;100518.66;1032701;28;730;-73
2022/09/08 00:30:30;;;;;;;;;;;;;;;22.59;59.43;100516.13;1033454;28;948;-73
2022/09/08 00:31:21;;;;;;;;;;;;;;;22.58;59.56;100523.44;1033023;28;652;-74
2022/09/08 00:32:11;;;;;;;;;;;;;;;22.59;59.30;100527.00;1033021;28;697;-74
2022/09/08 00:33:02;;;;;;;;;;;;;;;22.57;59.47;100516.34;1033366;28;623;-73
2022/09/08 00:33:52;;;;;;;;;;;;;;;22.60;59.56;100517.81;1033101;28;666;-73
2022/09/08 00:34:42;;;;;;;;;;;;;;;22.60;59.35;100515.94;1033136;28;622;-74
2022/09/08 00:35:33;;;;;;;;;;;;;;;22.60;59.34;100523.25;1028136;28;579;-73
2022/09/08 00:36:24;;;;;;;;;;;;;;;22.59;59.24;100522.41;1029774;28;638;-74
2022/09/08 00:37:14;;;;;;;;;;;;;;;22.60;59.14;100515.09;1029392;28;670;-74
2022/09/08 00:38:06;;;;;;;;;;;;;;;22.59;59.04;100516.97;1029469;28;725;-73
2022/09/08 00:38:58;;;;;;;;;;;;;;;22.59;59.46;100507.97;1029280;28;608;-73
2022/09/08 00:39:48;;;;;;;;;;;;;;;22.58;59.55;100509.84;1033438;28;630;-74
2022/09/08 00:40:39;;;;;;;;;;;;;;;22.58;59.10;100506.28;1028191;28;792;-74
2022/09/08 00:41:29;;;;;;;;;;;;;;;22.58;59.43;100503.56;1029920;28;689;-74
2022/09/08 00:42:20;;;;;;;;;;;;;;;22.58;59.28;100503.56;1029972;28;1928;-74
2022/09/08 00:43:10;;;;;;;;;;;;;;;22.56;59.26;100501.06;1032435;28;610;-74
2022/09/08 00:44:02;;;;;;;;;;;;;;;22.57;59.36;100502.75;1027665;28;658;-74
2022/09/08 00:44:53;;;;;;;;;;;;;;;22.57;59.57;100496.47;1029615;28;706;-74
2022/09/08 00:45:44;;;;;;;;;;;;;;;22.57;59.32;100496.47;1033017;28;642;-73
2022/09/08 00:46:34;;;;;;;;;;;;;;;22.56;59.57;100506.50;1033175;28;667;-74
2022/09/08 00:47:25;;;;;;;;;;;;;;;22.55;59.58;100503.97;1033284;28;698;-74
2022/09/08 00:48:16;;;;;;;;;;;;;;;22.56;59.53;100502.94;1033115;28;698;-74
2022/09/08 00:49:06;;;;;;;;;;;;;;;22.54;59.69;100496.84;1033755;28;682;-73
2022/09/08 00:49:56;;;;;;;;;;;;;;;22.55;59.53;100504.81;1032877;28;960;-74
2022/09/08 00:50:47;;;;;;;;;;;;;;;22.55;59.61;100499.38;1028139;28;722;-74
2022/09/08 00:51:39;;;;;;;;;;;;;;;22.56;59.22;100505.66;1030100;28;1421;-73
2022/09/08 00:52:29;;;;;;;;;;;;;;;22.56;59.38;100498.34;1029329;28;693;-73
2022/09/08 00:53:19;;;;;;;;;;;;;;;22.57;59.23;100515.50;1029727;28;1287;-73
2022/09/08 00:54:10;;;;;;;;;;;;;;;22.56;59.39;100511.09;1026191;28;582;-72
2022/09/08 00:55:01;;;;;;;;;;;;;;;22.55;59.45;100503.97;1026417;28;665;-76
2022/09/08 00:55:52;;;;;;;;;;;;;;;22.55;59.35;100514.84;1030230;28;650;-73
2022/09/08 00:56:42;;;;;;;;;;;;;;;22.52;59.61;100503.31;1029347;28;741;-75
2022/09/08 00:57:32;;;;;;;;;;;;;;;22.54;59.70;100505.84;1029054;28;670;-73
2022/09/08 00:58:24;;;;;;;;;;;;;;;22.54;59.54;100507.72;1029245;28;631;-74
2022/09/08 00:59:15;;;;;;;;;;;;;;;22.54;59.09;100507.72;1025518;29;726;-75
2022/09/08 01:00:06;;;;;;;;;;;;;;;22.54;59.30;100505.00;1024048;29;675;-74
2022/09/08 01:00:56;;;;;;;;;;;;;;;22.54;59.42;100507.72;1028661;28;627;-74
2022/09/08 01:01:47;;;;;;;;;;;;;;;22.53;59.46;100501.44;1029865;28;725;-74
2022/09/08 01:02:37;;;;;;;;;;;;;;;22.54;59.66;100502.28;1028913;28;694;-74
2022/09/08 01:03:31;;;;;;;;;;;;;;;22.52;59.59;100499.75;1029640;28;706;-75
2022/09/08 01:04:21;;;;;;;;;;;;;;;22.51;59.71;100500.78;1029729;28;733;-75
2022/09/08 01:05:12;;;;;;;;;;;;;;;22.51;59.43;100498.06;1029048;28;652;-75
2022/09/08 01:06:02;;;;;;;;;;;;;;;22.50;59.41;100490.94;1030496;28;654;-74
2022/09/08 01:12:45;;;;;;;;;;;;;;;22.45;59.12;100505.06;1029971;28;717;-74
2022/09/08 01:13:37;;;;;;;;;;;;;;;22.45;59.19;100506.94;1030432;28;654;-73
2022/09/08 01:14:27;;;;;;;;;;;;;;;22.43;59.47;100504.41;1029636;28;658;-74
2022/09/08 01:15:18;;;;;;;;;;;;;;;22.44;59.10;100506.09;1029990;28;643;-73
2022/09/08 01:16:09;;;;;;;;;;;;;;;22.44;59.03;100503.38;1029771;28;643;-74
2022/09/08 01:16:59;;;;;;;;;;;;;;;22.46;59.39;100500.47;1028951;28;752;-73
2022/09/08 01:17:49;;;;;;;;;;;;;;;22.46;58.91;100504.03;1029692;28;663;-73
2022/09/08 01:18:40;;;;;;;;;;;;;;;22.46;59.29;100495.03;1029113;28;575;-74
2022/09/08 01:19:31;;;;;;;;;;;;;;;22.45;59.24;100499.63;1025185;29;639;-73
2022/09/08 01:20:22;;;;;;;;;;;;;;;22.45;59.01;100494.19;1024478;29;656;-73
2022/09/08 01:21:13;;;;;;;;;;;;;;;22.45;59.18;100499.63;1027679;28;655;-73
2022/09/08 01:22:03;;;;;;;;;;;;;;;22.45;58.72;100496.91;1033042;28;1331;-73
2022/09/08 01:22:54;;;;;;;;;;;;;;;22.45;59.01;100498.78;1029576;28;670;-73
2022/09/08 01:23:44;;;;;;;;;;;;;;;22.46;58.96;100503.19;1028304;28;1445;-73
2022/09/08 01:24:35;;;;;;;;;;;;;;;22.46;59.33;100504.03;1033456;28;619;-73
2022/09/08 01:25:27;;;;;;;;;;;;;;;22.46;59.14;100504.03;1029657;28;768;-73
2022/09/08 01:26:18;;;;;;;;;;;;;;;22.46;58.95;100511.34;1029800;28;642;-73
2022/09/08 01:27:08;;;;;;;;;;;;;;;22.44;59.25;100506.09;1035335;28;689;-73
2022/09/08 01:27:58;;;;;;;;;;;;;;;22.44;59.28;100514.22;1033450;28;780;-72
2022/09/08 01:28:49;;;;;;;;;;;;;;;22.43;59.34;100515.25;1033542;28;689;-73
2022/09/08 01:29:39;;;;;;;;;;;;;;;22.44;59.13;100513.38;1034586;28;626;-73
2022/09/08 01:30:30;;;;;;;;;;;;;;;22.45;59.05;100515.09;1033493;28;702;-73
2022/09/08 01:31:21;;;;;;;;;;;;;;;22.44;58.89;100516.09;1033519;28;701;-74
2022/09/08 01:32:11;;;;;;;;;;;;;;;22.44;58.94;100519.66;1034648;28;1305;-73
2022/09/08 01:33:02;;;;;;;;;;;;;;;22.43;58.82;100507.13;1034677;28;634;-74
2022/09/08 01:33:52;;;;;;;;;;;;;;;22.44;59.20;100511.53;1033517;28;688;-74
2022/09/08 01:34:43;;;;;;;;;;;;;;;22.43;59.03;100504.41;1029817;28;680;-73
2022/09/08 01:35:33;;;;;;;;;;;;;;;22.43;58.94;100509.84;1029662;28;677;-73
2022/09/08 01:36:24;;;;;;;;;;;;;;;22.42;59.37;100508.16;1035003;28;635;-74
2022/09/08 01:37:14;;;;;;;;;;;;;;;22.40;59.65;100510.19;1034639;28;690;-75
2022/09/08 01:38:04;;;;;;;;;;;;;;;22.40;59.15;100510.19;1029104;28;658;-74
2022/09/08 01:38:55;;;;;;;;;;;;;;;22.40;58.91;100510.19;1030486;28;693;-74
2022/09/08 01:39:45;;;;;;;;;;;;;;;22.41;59.31;100508.31;1033881;28;657;-74
2022/09/08 01:40:38;;;;;;;;;;;;;;;22.40;59.31;100506.63;1034679;28;634;-74
2022/09/08 01:41:28;;;;;;;;;;;;;;;22.40;58.88;100503.91;1035161;28;610;-74
2022/09/08 01:42:19;;;;;;;;;;;;;;;22.38;59.29;100509.56;1034182;28;1890;-73
2022/09/08 01:43:09;;;;;;;;;;;;;;;22.38;58.97;100509.56;1033504;28;777;-74
2022/09/08 01:43:59;;;;;;;;;;;;;;;22.39;59.29;100504.97;1035044;28;670;-72
2022/09/08 01:44:50;;;;;;;;;;;;;;;22.37;59.12;100507.03;1034535;28;701;-73
2022/09/08 01:45:40;;;;;;;;;;;;;;;22.37;59.40;100502.44;1034792;28;701;-73
2022/09/08 01:46:31;;;;;;;;;;;;;;;22.36;59.28;100503.47;1034815;28;681;-73
2022/09/08 01:47:21;;;;;;;;;;;;;;;22.37;59.00;100502.44;1034562;28;599;-73
2022/09/08 01:48:12;;;;;;;;;;;;;;;22.39;59.20;100504.97;1035103;28;697;-73
2022/09/08 01:49:02;;;;;;;;;;;;;;;22.40;58.96;100501.22;1029059;28;729;-73
2022/09/08 01:49:53;;;;;;;;;;;;;;;22.36;59.26;100494.47;1030304;28;726;-73
2022/09/08 01:50:43;;;;;;;;;;;;;;;22.38;58.86;100490.56;1030729;28;631;-73
2022/09/08 01:51:33;;;;;;;;;;;;;;;22.39;59.04;100489.50;1029775;28;631;-73
2022/09/08 01:52:24;;;;;;;;;;;;;;;22.35;58.95;100493.63;1033905;28;682;-73
2022/09/08 01:53:15;;;;;;;;;;;;;;;22.37;59.07;100497.00;1029638;28;706;-73
2022/09/08 01:54:05;;;;;;;;;;;;;;;22.35;59.28;100492.78;1030319;28;682;-74
2022/09/08 01:54:56;;;;;;;;;;;;;;;22.32;59.23;100499.44;1029175;28;635;-74
2022/09/08 01:55:46;;;;;;;;;;;;;;;22.31;59.43;100497.75;1029118;28;655;-73
2022/09/08 01:56:37;;;;;;;;;;;;;;;22.33;59.47;100495.69;1027766;28;654;-74
2022/09/08 01:57:27;;;;;;;;;;;;;;;22.34;59.38;100496.53;1029291;28;671;-74
2022/09/08 01:58:18;;;;;;;;;;;;;;;22.36;59.19;100502.63;1028782;28;761;-73
2022/09/08 01:59:08;;;;;;;;;;;;;;;22.37;59.51;100501.59;1028888;28;702;-72
2022/09/08 01:59:58;;;;;;;;;;;;;;;22.39;59.07;100508.50;1026243;28;815;-73
2022/09/08 02:00:49;;;;;;;;;;;;;;;22.37;59.35;100502.44;1026869;28;610;-74
2022/09/08 02:01:39;;;;;;;;;;;;;;;22.38;59.30;100508.72;1030164;28;666;-74
2022/09/08 02:02:30;;;;;;;;;;;;;;;22.37;59.75;100512.47;1026999;28;1887;-74
2022/09/08 02:03:20;;;;;;;;;;;;;;;22.36;59.84;100519.75;1025560;28;654;-73
2022/09/08 02:04:20;;;;;;;;;;;;;;;22.35;59.81;100511.81;1028386;28;615;-73
2022/09/08 02:05:12;;;;;;;;;;;;;;;22.34;59.60;100504.69;1029987;28;836;-73
2022/09/08 02:06:03;;;;;;;;;;;;;;;22.34;59.69;100516.38;1024973;29;634;-73
2022/09/08 02:06:54;;;;;;;;;;;;;;;22.33;60.04;100505.69;1023774;28;696;-73
2022/09/08 02:07:44;;;;;;;;;;;;;;;22.33;59.92;100506.56;1030782;28;1488;-72
2022/09/08 02:08:35;;;;;;;;;;;;;;;22.33;59.99;100505.69;1034660;28;634;-73
2022/09/08 02:09:25;;;;;;;;;;;;;;;22.32;59.96;100504.00;1034485;28;645;-73
2022/09/08 02:10:15;;;;;;;;;;;;;;;22.32;59.72;100498.59;1035020;28;610;-73
2022/09/08 02:11:06;;;;;;;;;;;;;;;22.31;59.72;100497.75;1031044;28;1227;-73
2022/09/08 02:11:57;;;;;;;;;;;;;;;22.31;60.27;100492.31;1028706;28;583;-73
2022/09/08 02:12:48;;;;;;;;;;;;;;;22.32;59.83;100499.44;1030074;28;662;-72
2022/09/08 02:13:38;;;;;;;;;;;;;;;22.30;59.85;100492.50;1029531;28;740;-72
2022/09/08 02:14:28;;;;;;;;;;;;;;;22.28;60.32;100491.81;1030096;28;643;-72
2022/09/08 02:15:19;;;;;;;;;;;;;;;22.29;60.01;100488.09;1029946;28;654;-72
2022/09/08 02:16:12;;;;;;;;;;;;;;;22.29;59.80;100488.94;1028522;28;682;-72
2022/09/08 02:17:11;;;;;;;;;;;;;;;22.32;59.76;100491.28;1029905;28;650;-74
2022/09/08 02:18:02;;;;;;;;;;;;;;;22.33;59.84;100486.69;1029901;28;772;-72
2022/09/08 02:18:52;;;;;;;;;;;;;;;22.31;60.29;100492.31;1028487;28;651;-73
2022/09/08 02:19:42;;;;;;;;;;;;;;;22.31;59.88;100494.19;1029101;28;662;-73
2022/09/08 02:20:33;;;;;;;;;;;;;;;22.31;60.08;100494.19;1029632;28;638;-73
2022/09/08 02:21:24;;;;;;;;;;;;;;;22.31;59.75;100491.47;1028988;28;702;-73
2022/09/08 02:22:14;;;;;;;;;;;;;;;22.31;60.08;100496.91;1029939;28;1922;-73
2022/09/08 02:23:05;;;;;;;;;;;;;;;22.29;60.32;100497.06;1029258;28;702;-73
2022/09/08 02:23:55;;;;;;;;;;;;;;;22.28;60.52;100491.81;1029252;28;655;-73
2022/09/08 02:24:46;;;;;;;;;;;;;;;22.28;60.59;100480.97;1028755;28;635;-72
2022/09/08 02:25:41;;;;;;;;;;;;;;;22.28;60.45;100481.81;1029167;28;690;-73
2022/09/08 02:26:31;;;;;;;;;;;;;;;22.29;60.25;100483.50;1029889;28;704;-72
2022/09/08 02:27:22;;;;;;;;;;;;;;;22.29;60.25;100478.06;1029296;28;630;-72
2022/09/08 02:28:20;;;;;;;;;;;;;;;22.29;60.55;100480.78;1028356;28;650;-72
2022/09/08 02:29:10;;;;;;;;;;;;;;;22.27;60.67;100471.13;1029285;28;1505;-71
2022/09/08 02:30:01;;;;;;;;;;;;;;;22.28;60.77;100470.09;1028420;28;703;-72
2022/09/08 02:30:51;;;;;;;;;;;;;;;22.28;60.75;100479.09;1028527;28;1438;-72
2022/09/08 02:31:42;;;;;;;;;;;;;;;22.28;60.70;100470.09;1028244;28;594;-72
2022/09/08 02:32:32;;;;;;;;;;;;;;;22.29;60.19;100477.22;1028068;28;688;-71
2022/09/08 02:33:23;;;;;;;;;;;;;;;22.27;60.60;100469.25;1028346;28;642;-71
2022/09/08 02:34:20;;;;;;;;;;;;;;;22.27;60.69;100471.97;1028773;28;725;-72
2022/09/08 02:35:13;;;;;;;;;;;;;;;22.25;60.99;100470.47;1028515;28;733;-72
2022/09/08 02:36:03;;;;;;;;;;;;;;;22.23;60.86;100467.94;1027840;28;705;-73
2022/09/08 02:38:11;;;;;;;;;;;;;;;22.24;60.53;100464.19;1028652;28;713;-72
2022/09/08 02:39:01;;;;;;;;;;;;;;;22.24;60.36;100469.63;1029838;28;654;-72
2022/09/08 02:39:52;;;;;;;;;;;;;;;22.26;60.50;100469.44;1028546;28;636;-72
2022/09/08 02:40:42;;;;;;;;;;;;;;;22.25;60.85;100468.59;1029803;28;697;-73
2022/09/08 02:41:33;;;;;;;;;;;;;;;22.25;60.78;100465.03;1029795;28;661;-72
2022/09/08 02:42:23;;;;;;;;;;;;;;;22.24;60.69;100464.19;1029644;28;1947;-72
2022/09/08 02:43:14;;;;;;;;;;;;;;;22.23;60.64;100462.50;1029787;28;618;-72
2022/09/08 02:44:04;;;;;;;;;;;;;;;22.26;60.81;100473.00;1029699;28;771;-72
2022/09/08 02:44:55;;;;;;;;;;;;;;;22.26;60.68;100466.72;1029779;28;709;-71
2022/09/08 02:45:46;;;;;;;;;;;;;;;22.24;60.79;100464.19;1029777;28;693;-72
2022/09/08 02:46:36;;;;;;;;;;;;;;;22.25;60.59;100468.59;1028401;28;654;-71
2022/09/08 02:47:27;;;;;;;;;;;;;;;22.24;60.99;100466.06;1028933;28;709;-71
2022/09/08 02:48:17;;;;;;;;;;;;;;;22.22;61.14;100463.53;1028417;28;674;-71
2022/09/08 02:49:07;;;;;;;;;;;;;;;22.21;61.09;100464.59;1029050;28;709;-71
2022/09/08 02:49:58;;;;;;;;;;;;;;;22.22;60.96;100459.97;1028713;28;642;-72
2022/09/08 02:50:48;;;;;;;;;;;;;;;22.23;61.08;100465.22;1028686;28;587;-72
2022/09/08 02:51:39;;;;;;;;;;;;;;;22.22;61.16;100466.25;1028895;28;678;-71
2022/09/08 02:52:30;;;;;;;;;;;;;;;22.22;61.30;100468.97;1029509;28;685;-71
2022/09/08 02:53:20;;;;;;;;;;;;;;;22.22;61.21;100468.13;1028787;28;721;-71
2022/09/08 02:54:11;;;;;;;;;;;;;;;22.21;60.90;100469.19;1029814;28;627;-71
2022/09/08 02:55:01;;;;;;;;;;;;;;;22.21;60.71;100469.19;1030044;28;689;-72
2022/09/08 02:55:52;;;;;;;;;;;;;;;22.20;60.90;100468.34;1029879;28;674;-72
2022/09/08 02:56:42;;;;;;;;;;;;;;;22.20;60.98;100462.91;1029741;28;678;-72
2022/09/08 02:57:32;;;;;;;;;;;;;;;22.20;60.82;100468.34;1029968;28;650;-73
2022/09/08 02:58:23;;;;;;;;;;;;;;;22.20;60.89;100465.63;1029741;28;626;-73
2022/09/08 02:59:14;;;;;;;;;;;;;;;22.20;61.02;100468.34;1027589;28;1543;-72
2022/09/08 03:00:05;;;;;;;;;;;;;;;22.21;60.88;100461.03;1028763;28;705;-72
2022/09/08 03:00:55;;;;;;;;;;;;;;;22.19;60.72;100455.78;1028902;28;1403;-72
2022/09/08 03:01:49;;;;;;;;;;;;;;;22.21;60.78;100459.16;1029265;28;634;-70
2022/09/08 03:02:39;;;;;;;;;;;;;;;22.22;61.01;100457.25;1029450;28;1895;-70
2022/09/08 03:03:30;;;;;;;;;;;;;;;22.22;60.83;100458.09;1029049;28;663;-70
2022/09/08 03:04:20;;;;;;;;;;;;;;;22.23;60.87;100451.66;1033042;28;642;-73
2022/09/08 03:05:10;;;;;;;;;;;;;;;22.22;60.70;100447.25;1033334;28;657;-70
2022/09/08 03:06:01;;;;;;;;;;;;;;;22.22;60.64;100443.69;1029294;28;837;-70
2022/09/08 03:06:51;;;;;;;;;;;;;;;22.23;60.92;100445.38;1029725;28;681;-71
2022/09/08 03:07:42;;;;;;;;;;;;;;;22.22;60.76;100449.97;1028467;28;659;-70
2022/09/08 03:08:33;;;;;;;;;;;;;;;22.23;60.55;100451.66;1029236;28;698;-70
2022/09/08 03:09:23;;;;;;;;;;;;;;;22.24;60.89;100447.91;1033502;28;855;-70
2022/09/08 03:10:14;;;;;;;;;;;;;;;22.25;60.71;100452.31;1033237;28;658;-70
2022/09/08 03:11:04;;;;;;;;;;;;;;;22.24;60.72;100447.06;1030281;28;1233;-71
2022/09/08 03:11:55;;;;;;;;;;;;;;;22.25;60.87;100449.59;1030254;28;658;-71
2022/09/08 03:12:46;;;;;;;;;;;;;;;22.25;60.92;100444.16;1028411;28;682;-71
2022/09/08 03:13:37;;;;;;;;;;;;;;;22.26;61.04;100443.16;1032779;28;710;-71
2022/09/08 03:14:28;;;;;;;;;;;;;;;22.24;60.47;100442.47;1033587;28;800;-72
2022/09/08 03:15:18;;;;;;;;;;;;;;;22.24;60.54;100436.22;1033190;28;685;-70
2022/09/08 03:16:09;;;;;;;;;;;;;;;22.23;60.74;100440.78;1033285;28;835;-73
2022/09/08 03:16:59;;;;;;;;;;;;;;;22.24;60.86;100437.06;1032170;28;517;-72
2022/09/08 03:17:50;;;;;;;;;;;;;;;22.23;61.14;100431.81;1028693;28;646;-72
2022/09/08 03:18:40;;;;;;;;;;;;;;;22.23;61.07;100434.53;1028721;28;1587;-72
2022/09/08 03:19:30;;;;;;;;;;;;;;;22.23;60.92;100437.25;1032676;28;685;-72
2022/09/08 03:20:21;;;;;;;;;;;;;;;22.22;60.63;100433.69;1034209;28;689;-71
2022/09/08 03:21:12;;;;;;;;;;;;;;;22.24;60.59;100426.19;1034584;28;638;-71
2022/09/08 03:22:03;;;;;;;;;;;;;;;22.22;60.80;100422.81;1028614;28;593;-72
2022/09/08 03:22:53;;;;;;;;;;;;;;;22.24;60.95;100428.06;1028709;28;827;-72
2022/09/08 03:23:44;;;;;;;;;;;;;;;22.21;60.65;100418.44;1031441;28;651;-70
2022/09/08 03:24:34;;;;;;;;;;;;;;;22.21;60.91;100421.16;1033059;28;1046;-70
2022/09/08 03:25:25;;;;;;;;;;;;;;;22.22;60.86;100427.41;1034168;28;741;-71
2022/09/08 03:26:15;;;;;;;;;;;;;;;22.22;61.25;100436.41;1034005;28;646;-72
2022/09/08 03:27:06;;;;;;;;;;;;;;;22.22;60.95;100433.69;1034042;28;1478;-71
2022/09/08 03:27:56;;;;;;;;;;;;;;;22.21;61.24;100437.44;1034092;28;689;-71
2022/09/08 03:28:47;;;;;;;;;;;;;;;22.22;60.97;100438.25;1033039;28;611;-71
2022/09/08 03:29:37;;;;;;;;;;;;;;;22.21;61.01;100437.44;1034182;28;646;-72
2022/09/08 03:30:28;;;;;;;;;;;;;;;22.21;61.05;100448.31;1028579;28;663;-72
2022/09/08 03:31:19;;;;;;;;;;;;;;;22.21;60.98;100442.88;1029779;28;666;-71
2022/09/08 03:32:09;;;;;;;;;;;;;;;22.21;61.27;100442.03;1033491;28;705;-71
2022/09/08 03:33:00;;;;;;;;;;;;;;;22.21;61.41;100442.03;1034179;28;654;-72
2022/09/08 03:33:51;;;;;;;;;;;;;;;22.20;61.17;100441.19;1032990;28;618;-72
2022/09/08 03:34:41;;;;;;;;;;;;;;;22.20;61.34;100433.03;1034074;28;638;-71
2022/09/08 03:35:31;;;;;;;;;;;;;;;22.20;61.05;100430.34;1028617;28;734;-71
2022/09/08 03:36:22;;;;;;;;;;;;;;;22.20;61.47;100424.06;1029803;28;666;-71
2022/09/08 03:37:13;;;;;;;;;;;;;;;22.19;61.19;100419.66;1029287;28;748;-71
2022/09/08 03:38:03;;;;;;;;;;;;;;;22.18;61.42;100416.09;1031999;28;662;-71
2022/09/08 03:38:54;;;;;;;;;;;;;;;22.17;61.42;100412.53;1034116;28;642;-71
2022/09/08 03:39:46;;;;;;;;;;;;;;;22.19;61.37;100412.38;1028191;28;605;-71
2022/09/08 03:40:36;;;;;;;;;;;;;;;22.19;60.86;100406.94;1028205;28;1541;-72
2022/09/08 03:41:27;;;;;;;;;;;;;;;22.19;61.06;100403.38;1031788;28;638;-72
2022/09/08 03:42:17;;;;;;;;;;;;;;;22.20;61.07;100402.34;1032351;28;1879;-72
2022/09/08 03:43:08;;;;;;;;;;;;;;;22.20;61.05;100405.91;1032106;28;627;-72
2022/09/08 03:43:58;;;;;;;;;;;;;;;22.21;61.30;100401.31;1027628;28;687;-72
2022/09/08 03:44:49;;;;;;;;;;;;;;;22.20;61.10;100405.91;1029372;28;665;-71
2022/09/08 03:45:39;;;;;;;;;;;;;;;22.21;61.47;100401.31;1031930;28;642;-72
2022/09/08 03:46:29;;;;;;;;;;;;;;;22.20;61.08;100397.75;1031445;28;655;-72
2022/09/08 03:47:20;;;;;;;;;;;;;;;22.21;61.49;100402.16;1031243;28;703;-72
2022/09/08 03:48:10;;;;;;;;;;;;;;;22.23;61.14;100399.22;1032380;28;733;-71
2022/09/08 03:49:01;;;;;;;;;;;;;;;22.24;60.85;100400.91;1027384;28;674;-71
2022/09/08 03:49:51;;;;;;;;;;;;;;;22.23;61.32;100401.94;1028838;28;619;-71
2022/09/08 03:50:42;;;;;;;;;;;;;;;22.22;60.96;100390.25;1031876;28;650;-71
2022/09/08 03:51:32;;;;;;;;;;;;;;;22.22;60.95;100401.09;1032400;28;749;-71
2022/09/08 03:52:23;;;;;;;;;;;;;;;22.22;61.39;100400.25;1032310;28;687;-71
2022/09/08 03:53:13;;;;;;;;;;;;;;;22.21;61.24;100396.72;1027721;28;655;-71
2022/09/08 03:55:13;;;;;;;;;;;;;;;22.23;61.05;100397.38;1027152;28;647;-71
2022/09/08 03:56:03;;;;;;;;;;;;;;;22.23;61.12;100386.50;1028973;28;686;-72
2022/09/08 03:56:54;;;;;;;;;;;;;;;22.23;61.30;100391.09;1028847;28;713;-72
2022/09/08 03:57:44;;;;;;;;;;;;;;;22.23;61.30;100388.38;1028651;28;766;-72
2022/09/08 03:58:35;;;;;;;;;;;;;;;22.23;61.01;100391.09;1027996;28;698;-72
2022/09/08 03:59:25;;;;;;;;;;;;;;;22.22;61.22;100382.09;1028848;28;706;-71
2022/09/08 04:00:16;;;;;;;;;;;;;;;22.21;61.33;100387.75;1028880;28;768;-72
2022/09/08 04:01:06;;;;;;;;;;;;;;;22.21;61.29;100387.75;1029475;28;693;-72
2022/09/08 04:01:56;;;;;;;;;;;;;;;22.21;61.04;100385.88;1029082;28;693;-72
2022/09/08 04:02:47;;;;;;;;;;;;;;;22.21;61.10;100385.88;1027947;28;647;-72
2022/09/08 04:03:38;;;;;;;;;;;;;;;22.22;61.14;100389.41;1027302;28;639;-72
2022/09/08 04:04:29;;;;;;;;;;;;;;;22.21;60.89;100399.44;1027792;28;647;-71
2022/09/08 04:05:22;;;;;;;;;;;;;;;22.21;61.18;100394.03;1027851;28;655;-72
2022/09/08 04:06:13;;;;;;;;;;;;;;;22.22;61.39;100401.09;1027898;28;710;-72
2022/09/08 04:07:03;;;;;;;;;;;;;;;22.19;61.24;100401.50;1027091;28;615;-72
2022/09/08 04:07:54;;;;;;;;;;;;;;;22.21;60.89;100404.03;1028091;28;663;-72
2022/09/08 04:08:45;;;;;;;;;;;;;;;22.22;60.80;100394.84;1027571;28;845;-71
2022/09/08 04:09:36;;;;;;;;;;;;;;;22.21;60.80;100404.88;1027767;28;639;-72
2022/09/08 04:10:26;;;;;;;;;;;;;;;22.23;60.92;100407.38;1029348;28;694;-72
2022/09/08 04:11:17;;;;;;;;;;;;;;;22.24;61.01;100409.06;1028516;28;1202;-72
2022/09/08 04:12:07;;;;;;;;;;;;;;;22.23;61.02;100413.66;1027722;28;654;-71
2022/09/08 04:12:57;;;;;;;;;;;;;;;22.16;61.52;100416.28;1027912;28;679;-72
2022/09/08 04:13:51;;;;;;;;;;;;;;;21.98;61.61;100429.31;1028955;28;611;-72
2022/09/08 04:14:41;;;;;;;;;;;;;;;22.00;61.88;100432.72;1027378;28;623;-72
2022/09/08 04:15:32;;;;;;;;;;;;;;;22.05;61.61;100435.72;1028050;28;666;-72
2022/09/08 04:16:22;;;;;;;;;;;;;;;22.08;61.50;100432.63;1024577;29;635;-72
2022/09/08 04:17:13;;;;;;;;;;;;;;;22.11;61.27;100431.44;1024605;29;690;-72
2022/09/08 04:18:03;;;;;;;;;;;;;;;22.11;61.43;100426.00;1027576;28;1468;-72
2022/09/08 04:18:53;;;;;;;;;;;;;;;22.10;61.36;100427.03;1029432;28;678;-72
2022/09/08 04:19:44;;;;;;;;;;;;;;;22.11;61.77;100428.72;1028873;28;698;-71
2022/09/08 04:20:35;;;;;;;;;;;;;;;22.11;61.49;100423.28;1029103;28;757;-72
2022/09/08 04:21:25;;;;;;;;;;;;;;;22.09;61.77;100423.47;1028313;28;730;-72
2022/09/08 04:22:16;;;;;;;;;;;;;;;21.98;61.75;100417.63;1029098;28;1969;-72
2022/09/08 04:23:06;;;;;;;;;;;;;;;21.86;62.43;100416.34;1029154;28;698;-72
2022/09/08 04:23:58;;;;;;;;;;;;;;;21.87;62.22;100418.03;1029059;28;647;-72
2022/09/08 04:24:49;;;;;;;;;;;;;;;21.92;62.11;100421.91;1028288;28;673;-71
2022/09/08 04:25:39;;;;;;;;;;;;;;;22.00;61.54;100418.31;1029659;28;660;-71
2022/09/08 04:26:30;;;;;;;;;;;;;;;21.96;61.87;100423.22;1028917;28;634;-71
2022/09/08 04:27:21;;;;;;;;;;;;;;;22.01;62.11;100420.00;1028858;28;638;-71
2022/09/08 04:28:12;;;;;;;;;;;;;;;22.03;61.60;100428.81;1029580;28;714;-71
2022/09/08 04:29:03;;;;;;;;;;;;;;;21.98;62.00;100436.63;1028868;28;677;-71
2022/09/08 04:29:53;;;;;;;;;;;;;;;21.93;61.83;100436.31;1028898;28;686;-70
2022/09/08 04:30:44;;;;;;;;;;;;;;;21.83;62.34;100434.72;1028566;28;639;-70
2022/09/08 04:31:37;;;;;;;;;;;;;;;21.85;62.05;100441.81;1027707;28;635;-70
2022/09/08 04:32:27;;;;;;;;;;;;;;;21.77;62.73;100440.84;1026992;28;753;-70
2022/09/08 04:33:18;;;;;;;;;;;;;;;21.82;62.22;100441.16;1029215;28;721;-69
2022/09/08 04:34:08;;;;;;;;;;;;;;;21.86;62.10;100443.47;1028397;28;697;-69
2022/09/08 04:34:59;;;;;;;;;;;;;;;21.92;62.24;100445.47;1026663;28;718;-69
2022/09/08 04:35:49;;;;;;;;;;;;;;;21.88;62.00;100445.00;1028568;28;638;-69